createdAt,value
2022-08-20T00:00:28.703Z,99066.31
2022-08-20T00:03:33.923Z,99065.13
2022-08-20T00:06:35.878Z,99066.34
2022-08-20T00:09:41.786Z,99071.09
2022-08-20T00:12:47.408Z,99069.31
2022-08-20T00:15:49.701Z,99067.31
2022-08-20T00:18:51.568Z,99082.75
2022-08-20T00:21:58.435Z,99080.03
2022-08-20T00:25:00.808Z,99080.25
2022-08-20T00:28:05.026Z,99076.13
2022-08-20T00:31:10.001Z,99075.78
2022-08-20T00:34:11.982Z,99075.44
2022-08-20T00:37:14.424Z,99075.31
2022-08-20T00:40:23.281Z,99085.41
2022-08-20T00:43:28.148Z,99077.63
2022-08-20T00:46:31.703Z,99078.34
2022-08-20T00:49:34.064Z,99080.72
2022-08-20T00:52:36.897Z,99078.72
2022-08-20T00:55:38.995Z,99080.25
2022-08-20T00:58:45.275Z,99076.22
2022-08-20T01:01:56.236Z,99072.69
2022-08-20T01:04:58.953Z,99071.38
2022-08-20T01:08:00.956Z,99075.03
2022-08-20T01:11:21.323Z,99070.75
2022-08-20T01:14:23.447Z,99076.19
2022-08-20T01:17:29.160Z,99070.16
2022-08-20T01:20:38.178Z,99076.56
2022-08-20T01:24:06.681Z,99070.53
2022-08-20T01:27:09.704Z,99063.88
2022-08-20T01:30:14.803Z,99071.47
2022-08-20T01:33:22.177Z,99075.72
2022-08-20T01:36:30.414Z,99073.22
2022-08-20T01:39:35.319Z,99082.22
2022-08-20T01:42:58.709Z,99078.53
2022-08-20T01:46:01.571Z,99082.56
2022-08-20T01:49:21.025Z,99090.97
2022-08-20T01:52:37.021Z,99085.16
2022-08-20T01:55:39.560Z,99080.41
2022-08-20T01:58:56.059Z,99073.56
2022-08-20T02:02:02.823Z,99075.22
2022-08-20T02:05:05.346Z,99071.91
2022-08-20T02:08:07.329Z,99081.00
2022-08-20T02:11:11.051Z,99084.31
2022-08-20T02:14:13.337Z,99086.19
2022-08-20T02:17:16.436Z,99091.03
2022-08-20T02:20:23.865Z,99087.50
2022-08-20T02:23:27.021Z,99085.47
2022-08-20T02:26:29.573Z,99091.16
2022-08-20T02:29:32.011Z,99091.00
2022-08-20T02:32:34.293Z,99094.06
2022-08-20T02:35:38.485Z,99091.94
2022-08-20T02:38:41.099Z,99098.91
2022-08-20T02:41:43.180Z,99092.88
2022-08-20T02:44:45.116Z,99097.06
2022-08-20T02:47:47.445Z,99091.63
2022-08-20T02:50:53.019Z,99094.97
2022-08-20T02:53:54.924Z,99099.72
2022-08-20T02:56:56.827Z,99099.88
2022-08-20T02:59:59.228Z,99094.78
2022-08-20T03:03:07.152Z,99094.44
2022-08-20T03:06:11.725Z,99086.63
2022-08-20T03:09:13.581Z,99088.66
2022-08-20T03:12:15.866Z,99094.69
2022-08-20T03:15:18.037Z,99104.03
2022-08-20T03:18:22.715Z,99104.66
2022-08-20T03:21:24.709Z,99096.97
2022-08-20T03:24:26.567Z,99099.22
2022-08-20T03:27:31.242Z,99107.75
2022-08-20T03:30:39.787Z,99101.72
2022-08-20T03:33:52.872Z,99104.81
2022-08-20T03:36:55.861Z,99101.28
2022-08-20T03:39:58.586Z,99107.44
2022-08-20T03:43:01.154Z,99098.94
2022-08-20T03:46:04.331Z,99106.97
2022-08-20T03:49:06.460Z,99099.53
2022-08-20T03:52:08.434Z,99104.50
2022-08-20T03:55:11.730Z,99109.38
2022-08-20T03:58:14.578Z,99114.94
2022-08-20T04:01:37.155Z,99111.63
2022-08-20T04:04:40.775Z,99115.28
2022-08-20T04:07:42.697Z,99108.66
2022-08-20T04:10:46.548Z,99114.28
2022-08-20T04:13:48.605Z,99110.25
2022-08-20T04:16:51.627Z,99105.84
2022-08-20T04:19:53.623Z,99107.94
2022-08-20T04:22:59.340Z,99104.13
2022-08-20T04:26:01.664Z,99109.41
2022-08-20T04:29:04.729Z,99106.88
2022-08-20T04:32:07.335Z,99116.41
2022-08-20T04:35:14.701Z,99108.47
2022-08-20T04:38:19.265Z,99116.84
2022-08-20T04:41:23.860Z,99117.31
2022-08-20T04:44:26.309Z,99113.81
2022-08-20T04:47:34.766Z,99120.13
2022-08-20T04:50:38.663Z,99112.34
2022-08-20T04:53:42.798Z,99126.50
2022-08-20T04:56:44.684Z,99113.63
2022-08-20T04:59:46.864Z,99119.78
2022-08-20T05:02:49.321Z,99124.75
2022-08-20T05:05:51.971Z,99124.88
2022-08-20T05:08:55.961Z,99128.44
2022-08-20T05:11:57.914Z,99123.97
2022-08-20T05:15:00.312Z,99126.34
2022-08-20T05:18:07.702Z,99118.91
2022-08-20T05:21:09.540Z,99124.34
2022-08-20T05:24:12.319Z,99120.91
2022-08-20T05:27:25.040Z,99124.88
2022-08-20T05:30:34.157Z,99121.38
2022-08-20T05:33:38.722Z,99118.16
2022-08-20T05:36:48.184Z,99113.78
2022-08-20T05:39:51.408Z,99115.19
2022-08-20T05:42:53.979Z,99100.38
2022-08-20T05:45:58.603Z,99110.03
2022-08-20T05:49:02.047Z,99092.53
2022-08-20T05:52:05.429Z,99091.47
2022-08-20T05:55:09.974Z,99091.53
2022-08-20T05:58:38.368Z,99093.66
2022-08-20T06:01:42.061Z,99087.63
2022-08-20T06:04:44.040Z,99091.47
2022-08-20T06:07:46.636Z,99090.97
2022-08-20T06:10:48.599Z,99094.81
2022-08-20T06:13:50.546Z,99098.34
2022-08-20T06:16:57.892Z,99096.13
2022-08-20T06:20:07.628Z,99088.78
2022-08-20T06:23:09.629Z,99097.34
2022-08-20T06:26:11.727Z,99099.22
2022-08-20T06:29:13.566Z,99099.22
2022-08-20T06:32:16.417Z,99101.69
2022-08-20T06:35:20.136Z,99091.72
2022-08-20T06:38:22.180Z,99104.31
2022-08-20T06:41:35.857Z,99101.53
2022-08-20T06:44:38.459Z,99098.91
2022-08-20T06:47:42.125Z,99109.38
2022-08-20T06:50:47.897Z,99106.03
2022-08-20T06:53:50.045Z,99109.06
2022-08-20T06:56:54.683Z,99112.38
2022-08-20T06:59:56.698Z,99114.59
2022-08-20T07:03:01.255Z,99107.16
2022-08-20T07:06:03.349Z,99112.66
2022-08-20T07:09:05.144Z,99114.94
2022-08-20T07:12:10.525Z,99111.84
2022-08-20T07:15:14.890Z,99117.06
2022-08-20T07:18:17.106Z,99114.56
2022-08-20T07:21:30.519Z,99117.97
2022-08-20T07:24:32.589Z,99120.59
2022-08-20T07:27:35.555Z,99119.78
2022-08-20T07:30:57.919Z,99124.78
2022-08-20T07:34:00.508Z,99131.66
2022-08-20T07:37:02.481Z,99131.09
2022-08-20T07:40:05.027Z,99137.97
2022-08-20T07:43:06.973Z,99140.72
2022-08-20T07:46:11.865Z,99151.16
2022-08-20T07:49:13.814Z,99150.59
2022-08-20T07:52:15.962Z,99149.47
2022-08-20T07:55:18.074Z,99149.59
2022-08-20T07:58:22.579Z,99144.28
2022-08-20T08:01:31.980Z,99140.16
2022-08-20T08:04:34.651Z,99133.69
2022-08-20T08:07:38.385Z,99137.88
2022-08-20T08:10:42.928Z,99136.28
2022-08-20T08:13:44.975Z,99148.41
2022-08-20T08:16:54.192Z,99146.38
2022-08-20T08:19:59.952Z,99149.38
2022-08-20T08:23:01.825Z,99142.28
2022-08-20T08:26:04.348Z,99147.53
2022-08-20T08:29:28.316Z,99140.06
2022-08-20T08:32:34.860Z,99143.16
2022-08-20T08:35:41.464Z,99140.91
2022-08-20T08:38:46.623Z,99138.13
2022-08-20T08:41:54.398Z,99133.16
2022-08-20T08:44:59.620Z,99132.34
2022-08-20T08:48:07.861Z,99136.81
2022-08-20T08:51:12.788Z,99125.19
2022-08-20T08:54:18.656Z,99127.16
2022-08-20T08:57:20.890Z,99127.22
2022-08-20T09:00:31.600Z,99127.91
2022-08-20T09:03:44.141Z,99120.94
2022-08-20T09:06:52.068Z,99119.50
2022-08-20T09:09:58.308Z,99115.72
2022-08-20T09:13:10.482Z,99113.47
2022-08-20T09:16:13.586Z,99103.47
2022-08-20T09:19:15.527Z,99108.78
2022-08-20T09:22:20.874Z,99116.72
2022-08-20T09:25:24.582Z,99122.25
2022-08-20T09:28:32.514Z,99115.38
2022-08-20T09:31:37.763Z,99116.53
2022-08-20T09:34:46.993Z,99122.69
2022-08-20T09:37:51.059Z,99111.94
2022-08-20T09:40:54.153Z,99111.81
2022-08-20T09:43:56.089Z,99111.09
2022-08-20T09:46:57.980Z,99110.78
2022-08-20T09:49:59.934Z,99117.97
2022-08-20T09:53:04.180Z,99124.19
2022-08-20T09:56:07.798Z,99125.72
2022-08-20T09:59:09.789Z,99119.16
2022-08-20T10:02:12.808Z,99121.41
2022-08-20T10:05:15.259Z,99126.91
2022-08-20T10:08:17.391Z,99128.97
2022-08-20T10:11:22.208Z,99128.78
2022-08-20T10:14:24.115Z,99128.28
2022-08-20T10:17:26.174Z,99125.38
2022-08-20T10:20:30.670Z,99127.25
2022-08-20T10:23:32.660Z,99132.69
2022-08-20T10:26:34.532Z,99128.72
2022-08-20T10:29:39.037Z,99128.44
2022-08-20T10:32:42.793Z,99135.06
2022-08-20T10:35:44.883Z,99141.75
2022-08-20T10:38:48.621Z,99132.72
2022-08-20T10:41:50.490Z,99135.91
2022-08-20T10:44:52.407Z,99136.53
2022-08-20T10:47:54.430Z,99122.69
2022-08-20T10:50:56.466Z,99124.81
2022-08-20T10:54:00.032Z,99134.03
2022-08-20T10:57:05.257Z,99119.72
2022-08-20T11:00:10.978Z,99123.63
2022-08-20T11:03:13.324Z,99128.38
2022-08-20T11:06:17.626Z,99130.78
2022-08-20T11:09:19.972Z,99131.91
2022-08-20T11:12:24.535Z,99128.53
2022-08-20T11:15:28.436Z,99123.19
2022-08-20T11:18:31.659Z,99126.44
2022-08-20T11:21:33.784Z,99122.28
2022-08-20T11:24:36.251Z,99105.56
2022-08-20T11:27:44.443Z,99114.88
2022-08-20T11:30:50.002Z,99119.75
2022-08-20T11:33:54.336Z,99121.72
2022-08-20T11:36:59.189Z,99112.72
2022-08-20T11:40:01.204Z,99117.06
2022-08-20T11:43:18.687Z,99117.75
2022-08-20T11:46:28.466Z,99091.53
2022-08-20T11:49:36.785Z,99107.13
2022-08-20T11:52:40.752Z,99116.22
2022-08-20T11:55:43.656Z,99110.13
2022-08-20T11:58:46.208Z,99117.16
2022-08-20T12:01:49.931Z,99122.75
2022-08-20T12:05:06.238Z,99136.94
2022-08-20T12:08:09.635Z,99135.91
2022-08-20T12:11:11.955Z,99138.91
2022-08-20T12:14:15.803Z,99136.09
2022-08-20T12:17:26.403Z,99140.38
2022-08-20T12:20:28.519Z,99145.72
2022-08-20T12:23:33.345Z,99160.69
2022-08-20T12:26:36.425Z,99139.53
2022-08-20T12:29:44.024Z,99158.69
2022-08-20T12:32:46.181Z,99153.22
2022-08-20T12:35:51.811Z,99160.75
2022-08-20T12:38:53.778Z,99151.75
2022-08-20T12:41:55.724Z,99155.66
2022-08-20T12:45:07.211Z,99156.81
2022-08-20T12:48:14.489Z,99162.91
2022-08-20T12:51:16.365Z,99157.97
2022-08-20T12:54:20.442Z,99155.81
2022-08-20T12:57:25.253Z,99153.06
2022-08-20T13:00:34.051Z,99152.66
2022-08-20T13:03:43.169Z,99152.03
2022-08-20T13:06:47.093Z,99165.03
2022-08-20T13:09:49.108Z,99160.56
2022-08-20T13:12:51.226Z,99168.28
2022-08-20T13:15:53.204Z,99162.44
2022-08-20T13:18:54.998Z,99164.97
2022-08-20T13:21:57.520Z,99157.72
2022-08-20T13:25:02.017Z,99158.34
2022-08-20T13:28:04.767Z,99163.47
2022-08-20T13:31:06.760Z,99162.69
2022-08-20T13:34:08.624Z,99164.97
2022-08-20T13:37:25.608Z,99155.91
2022-08-20T13:40:28.345Z,99152.25
2022-08-20T13:43:30.233Z,99156.03
2022-08-20T13:46:31.998Z,99170.97
2022-08-20T13:49:34.132Z,99165.25
2022-08-20T13:52:37.476Z,99156.72
2022-08-20T13:55:39.507Z,99157.53
2022-08-20T13:58:41.420Z,99156.47
2022-08-20T14:01:44.530Z,99161.13
2022-08-20T14:04:48.092Z,99165.47
2022-08-20T14:07:51.584Z,99162.41
2022-08-20T14:10:54.388Z,99175.63
2022-08-20T14:13:56.257Z,99177.34
2022-08-20T14:16:58.112Z,99162.53
2022-08-20T14:20:03.143Z,99165.53
2022-08-20T14:23:05.032Z,99175.22
2022-08-20T14:26:06.777Z,99174.25
2022-08-20T14:29:08.641Z,99171.22
2022-08-20T14:32:11.388Z,99175.09
2022-08-20T14:35:13.615Z,99181.13
2022-08-20T14:38:15.486Z,99183.88
2022-08-20T14:41:17.371Z,99179.47
2022-08-20T14:44:19.153Z,99176.75
2022-08-20T14:47:22.605Z,99179.78
2022-08-20T14:50:31.854Z,99171.78
2022-08-20T14:53:38.574Z,99168.22
2022-08-20T14:56:43.333Z,99164.94
2022-08-20T14:59:45.872Z,99164.94
2022-08-20T15:02:49.166Z,99167.41
2022-08-20T15:05:54.509Z,99173.72
2022-08-20T15:08:57.399Z,99167.13
2022-08-20T15:11:59.959Z,99165.78
2022-08-20T15:15:13.393Z,99159.72
2022-08-20T15:18:19.285Z,99167.97
2022-08-20T15:21:22.467Z,99166.84
2022-08-20T15:24:24.425Z,99169.84
2022-08-20T15:27:27.152Z,99172.88
2022-08-20T15:30:31.081Z,99171.75
2022-08-20T15:33:33.092Z,99183.03
2022-08-20T15:36:35.112Z,99187.16
2022-08-20T15:39:43.201Z,99186.31
2022-08-20T15:42:46.522Z,99192.91
2022-08-20T15:45:48.659Z,99195.66
2022-08-20T15:48:50.937Z,99197.03
2022-08-20T15:51:52.807Z,99193.44
2022-08-20T15:54:55.162Z,99197.81
2022-08-20T15:58:15.255Z,99200.28
2022-08-20T16:01:40.593Z,99204.13
2022-08-20T16:05:03.630Z,99203.53
2022-08-20T16:08:17.482Z,99205.75
2022-08-20T16:11:35.840Z,99205.91
2022-08-20T16:14:45.311Z,99207.84
2022-08-20T16:17:53.270Z,99209.47
2022-08-20T16:20:56.919Z,99205.91
2022-08-20T16:24:05.940Z,99205.66
2022-08-20T16:27:21.700Z,99203.44
2022-08-20T16:30:41.956Z,99206.75
2022-08-20T16:34:05.355Z,99206.69
2022-08-20T16:37:54.554Z,99201.16
2022-08-20T16:41:07.032Z,99209.91
2022-08-20T16:44:20.115Z,99208.81
2022-08-20T16:47:31.621Z,99218.16
2022-08-20T16:50:45.950Z,99216.50
2022-08-20T16:53:48.528Z,99237.84
2022-08-20T16:56:58.731Z,99241.66
2022-08-20T17:00:13.679Z,99238.34
2022-08-20T17:03:31.629Z,99230.13
2022-08-20T17:06:47.082Z,99238.84
2022-08-20T17:09:48.922Z,99237.19
2022-08-20T17:12:54.221Z,99234.47
2022-08-20T17:16:16.253Z,99239.97
2022-08-20T17:19:33.845Z,99236.09
2022-08-20T17:22:45.639Z,99234.00
2022-08-20T17:26:03.323Z,99232.06
2022-08-20T17:29:22.256Z,99227.97
2022-08-20T17:32:26.155Z,99237.25
2022-08-20T17:35:40.804Z,99242.38
2022-08-20T17:38:49.014Z,99244.75
2022-08-20T17:42:03.277Z,99245.53
2022-08-20T17:45:22.296Z,99251.59
2022-08-20T17:48:31.059Z,99247.78
2022-08-20T17:51:38.492Z,99249.28
2022-08-20T17:54:44.655Z,99250.75
2022-08-20T17:57:52.277Z,99250.94
2022-08-20T18:00:54.197Z,99244.34
2022-08-20T18:03:56.181Z,99254.94
2022-08-20T18:07:27.541Z,99248.78
2022-08-20T18:10:33.733Z,99247.59
2022-08-20T18:14:06.812Z,99248.34
2022-08-20T18:17:27.856Z,99243.81
2022-08-20T18:20:58.397Z,99247.09
2022-08-20T18:24:08.853Z,99247.97
2022-08-20T18:27:15.397Z,99245.25
2022-08-20T18:30:21.565Z,99241.97
2022-08-20T18:33:35.576Z,99238.94
2022-08-20T18:36:37.712Z,99231.81
2022-08-20T18:39:40.730Z,99223.75
2022-08-20T18:42:45.062Z,99230.66
2022-08-20T18:45:47.229Z,99208.75
2022-08-20T18:48:58.677Z,99210.91
2022-08-20T18:52:28.589Z,99216.56
2022-08-20T18:55:33.319Z,99204.81
2022-08-20T18:59:10.179Z,99206.56
2022-08-20T19:02:21.290Z,99203.91
2022-08-20T19:05:40.495Z,99198.78
2022-08-20T19:08:59.401Z,99191.41
2022-08-20T19:12:33.052Z,99193.00
2022-08-20T19:15:42.680Z,99187.72
2022-08-20T19:18:52.791Z,99195.69
2022-08-20T19:21:56.395Z,99184.38
2022-08-20T19:24:59.612Z,99186.56
2022-08-20T19:28:08.182Z,99185.13
2022-08-20T19:31:33.773Z,99186.88
2022-08-20T19:34:36.983Z,99182.44
2022-08-20T19:37:50.535Z,99183.56
2022-08-20T19:40:55.577Z,99176.91
2022-08-20T19:44:23.913Z,99170.25
2022-08-20T19:47:41.970Z,99176.91
2022-08-20T19:50:57.498Z,99169.69
2022-08-20T19:53:59.926Z,99174.06
2022-08-20T19:57:09.692Z,99171.81
2022-08-20T20:00:13.069Z,99173.81
2022-08-20T20:03:23.503Z,99168.78
2022-08-20T20:06:28.025Z,99169.56
2022-08-20T20:09:30.462Z,99173.38
2022-08-20T20:12:33.535Z,99170.66
2022-08-20T20:15:37.093Z,99163.16
2022-08-20T20:18:43.365Z,99175.19
2022-08-20T20:21:50.642Z,99170.81
2022-08-20T20:25:03.414Z,99168.84
2022-08-20T20:28:22.321Z,99172.81
2022-08-20T20:31:29.625Z,99174.78
2022-08-20T20:34:37.903Z,99166.25
2022-08-20T20:38:07.672Z,99168.00
2022-08-20T20:41:21.990Z,99174.69
2022-08-20T20:44:36.931Z,99174.56
2022-08-20T20:47:39.355Z,99167.84
2022-08-20T20:50:47.061Z,99172.97
2022-08-20T20:53:54.874Z,99166.78
2022-08-20T20:57:03.783Z,99158.53
2022-08-20T21:00:12.045Z,99167.75
2022-08-20T21:03:13.985Z,99160.88
2022-08-20T21:06:19.210Z,99162.66
2022-08-20T21:09:22.475Z,99162.41
2022-08-20T21:12:25.135Z,99153.56
2022-08-20T21:15:27.933Z,99156.16
2022-08-20T21:18:29.958Z,99160.16
2022-08-20T21:21:32.217Z,99159.81
2022-08-20T21:24:34.604Z,99155.38
2022-08-20T21:27:38.921Z,99160.31
2022-08-20T21:30:40.831Z,99157.59
2022-08-20T21:33:43.425Z,99150.72
2022-08-20T21:36:46.628Z,99149.22
2022-08-20T21:39:48.549Z,99143.94
2022-08-20T21:42:51.309Z,99147.88
2022-08-20T21:45:53.499Z,99147.66
2022-08-20T21:48:55.954Z,99140.03
2022-08-20T21:52:00.556Z,99135.81
2022-08-20T21:55:02.595Z,99127.28
2022-08-20T21:58:04.899Z,99125.63
2022-08-20T22:01:07.916Z,99133.84
2022-08-20T22:04:10.315Z,99128.22
2022-08-20T22:07:12.577Z,99129.06
2022-08-20T22:10:14.413Z,99130.22
2022-08-20T22:13:16.357Z,99134.19
2022-08-20T22:16:22.463Z,99134.25
2022-08-20T22:19:24.302Z,99128.47
2022-08-20T22:22:26.119Z,99129.03
2022-08-20T22:25:28.231Z,99115.97
2022-08-20T22:28:30.015Z,99115.81
2022-08-20T22:31:33.636Z,99116.66
2022-08-20T22:34:36.318Z,99117.66
2022-08-20T22:37:38.240Z,99116.19
2022-08-20T22:40:40.040Z,99111.47
2022-08-20T22:43:46.271Z,99119.41
2022-08-20T22:47:00.178Z,99118.34
2022-08-20T22:50:03.232Z,99123.41
2022-08-20T22:53:06.385Z,99122.16
2022-08-20T22:56:08.204Z,99114.28
2022-08-20T22:59:22.023Z,99114.13
2022-08-20T23:02:24.902Z,99116.34
2022-08-20T23:05:29.642Z,99117.56
2022-08-20T23:08:31.435Z,99122.94
2022-08-20T23:11:33.296Z,99131.84
2022-08-20T23:14:35.080Z,99124.28
2022-08-20T23:17:38.179Z,99118.25
2022-08-20T23:20:41.080Z,99118.72
2022-08-20T23:23:42.873Z,99121.34
2022-08-20T23:26:52.847Z,99128.34
2022-08-20T23:29:55.213Z,99128.59
2022-08-20T23:32:57.566Z,99131.31
2022-08-20T23:36:04.639Z,99131.47
2022-08-20T23:39:07.406Z,99129.16
2022-08-20T23:42:11.127Z,99128.19
2022-08-20T23:45:13.832Z,99126.19
2022-08-20T23:48:15.672Z,99119.91
2022-08-20T23:51:17.563Z,99119.69
2022-08-20T23:54:19.300Z,99116.59
2022-08-20T23:57:21.256Z,99120.47
